Patoka, Illinois
Current Conditions -  °F | °C
As of 4:55 AM on Monday 20 Oct 2014 (Local Time) from KSLO Reporting Station
Scattered Clouds Scattered Clouds  
Wind Chill: 54°   Ceiling: Unl
Heat Index: 54°   Visibility: 10mi
Dew Point: 49°   Wind: 7mph
Humidity: 85%   Direction: 220°SW
Pressure: 29.99"   Gusts: NA
Location:  38.76°N, 89.1°W
Report Text: KSLO 200955Z AUTO 22006KT 10SM SCT120 12/10 A2999 RMK AO2 T01200096
Loading
Personal Weather Stations






























Interactive Weather Map
Tropical Storm Tracking
New forecast layout! Learn more

10-Day Weather Forecast

Advertisements
Track Severe Weather on mobile